createdAt,value
2018-12-17T00:01:36.319Z,87.88
2018-12-17T00:04:03.887Z,87.89
2018-12-17T00:06:31.452Z,87.35
2018-12-17T00:08:59.176Z,87.67
2018-12-17T00:11:26.754Z,87.45
2018-12-17T00:13:54.289Z,86.83
2018-12-17T00:16:21.849Z,85.78
2018-12-17T00:18:49.388Z,85.82
2018-12-17T00:21:17.025Z,85.68
2018-12-17T00:23:44.661Z,85.03
2018-12-17T00:26:12.196Z,85.22
2018-12-17T00:28:39.824Z,85.03
2018-12-17T00:31:07.354Z,85.19
2018-12-17T00:33:34.985Z,85.28
2018-12-17T00:36:02.574Z,85.40
2018-12-17T00:38:30.111Z,85.90
2018-12-17T00:40:58.113Z,85.81
2018-12-17T00:43:25.925Z,85.43
2018-12-17T00:45:53.455Z,85.82
2018-12-17T00:48:21.507Z,85.31
2018-12-17T00:50:49.118Z,85.65
2018-12-17T00:53:16.645Z,85.81
2018-12-17T00:55:44.517Z,85.91
2018-12-17T00:58:15.175Z,85.98
2018-12-17T01:00:41.748Z,86.76
2018-12-17T01:03:09.572Z,86.38
2018-12-17T01:05:37.143Z,86.96
2018-12-17T01:08:04.763Z,86.34
2018-12-17T01:10:32.297Z,86.15
2018-12-17T01:12:59.833Z,85.85
2018-12-17T01:15:27.420Z,85.54
2018-12-17T01:17:54.964Z,85.12
2018-12-17T01:20:22.505Z,85.53
2018-12-17T01:22:50.077Z,85.67
2018-12-17T01:25:18.642Z,85.29
2018-12-17T01:27:46.225Z,85.62
2018-12-17T01:30:14.121Z,85.80
2018-12-17T01:32:41.912Z,85.55
2018-12-17T01:35:09.424Z,85.72
2018-12-17T01:37:36.951Z,85.69
2018-12-17T01:40:04.688Z,86.22
2018-12-17T01:42:32.244Z,86.75
2018-12-17T01:44:59.769Z,86.96
2018-12-17T01:47:27.317Z,86.89
2018-12-17T01:49:54.857Z,86.55
2018-12-17T01:52:22.373Z,86.23
2018-12-17T01:54:49.916Z,86.39
2018-12-17T01:57:17.504Z,85.95
2018-12-17T01:59:45.085Z,85.86
2018-12-17T02:02:12.614Z,85.39
2018-12-17T02:04:40.173Z,85.77
2018-12-17T02:07:07.845Z,85.83
2018-12-17T02:09:35.457Z,85.89
2018-12-17T02:12:03.137Z,86.18
2018-12-17T02:14:30.660Z,85.63
2018-12-17T02:16:58.214Z,85.54
2018-12-17T02:19:25.770Z,85.07
2018-12-17T02:21:53.330Z,85.40
2018-12-17T02:24:20.875Z,85.18
2018-12-17T02:26:48.447Z,84.88
2018-12-17T02:29:15.988Z,84.64
2018-12-17T02:31:43.517Z,85.17
2018-12-17T02:34:11.079Z,84.54
2018-12-17T02:36:38.925Z,84.67
2018-12-17T02:39:07.081Z,84.25
2018-12-17T02:41:34.599Z,84.72
2018-12-17T02:44:03.313Z,84.36
2018-12-17T02:46:30.852Z,84.37
2018-12-17T02:48:58.389Z,84.65
2018-12-17T02:51:25.957Z,84.63
2018-12-17T02:53:53.507Z,84.47
2018-12-17T02:56:21.101Z,84.30
2018-12-17T02:58:48.656Z,84.84
2018-12-17T03:01:17.457Z,84.32
2018-12-17T03:03:44.984Z,85.12
2018-12-17T03:06:12.526Z,85.35
2018-12-17T03:08:41.007Z,85.48
2018-12-17T03:11:08.533Z,85.98
2018-12-17T03:13:36.044Z,85.85
2018-12-17T03:16:03.706Z,85.79
2018-12-17T03:18:31.241Z,85.13
2018-12-17T03:20:58.821Z,85.53
2018-12-17T03:23:26.385Z,85.49
2018-12-17T03:25:53.921Z,85.89
2018-12-17T03:28:21.463Z,86.03
2018-12-17T03:30:49.422Z,86.41
2018-12-17T03:33:16.947Z,86.49
2018-12-17T03:35:44.476Z,86.42
2018-12-17T03:38:12.039Z,86.54
2018-12-17T03:40:39.742Z,86.78
2018-12-17T03:43:07.271Z,86.23
2018-12-17T03:45:35.182Z,86.85
2018-12-17T03:48:02.746Z,86.84
2018-12-17T03:50:30.372Z,86.42
2018-12-17T03:52:58.298Z,86.82
2018-12-17T03:55:26.460Z,86.70
2018-12-17T03:57:54.037Z,85.96
2018-12-17T04:00:21.577Z,85.33
2018-12-17T04:02:49.113Z,85.04
2018-12-17T04:05:16.652Z,84.48
2018-12-17T04:07:44.230Z,84.87
2018-12-17T04:10:11.852Z,85.22
2018-12-17T04:12:39.734Z,85.76
2018-12-17T04:15:07.403Z,85.87
2018-12-17T04:17:35.002Z,86.67
2018-12-17T04:20:02.554Z,86.52
2018-12-17T04:22:30.154Z,86.31
2018-12-17T04:24:58.167Z,85.96
2018-12-17T04:27:25.692Z,86.37
2018-12-17T04:29:53.318Z,86.46
2018-12-17T04:32:20.933Z,86.29
2018-12-17T04:34:48.486Z,86.88
2018-12-17T04:37:17.076Z,86.62
2018-12-17T04:39:44.608Z,86.59
2018-12-17T04:42:12.143Z,86.81
2018-12-17T04:44:40.094Z,87.27
2018-12-17T04:47:07.634Z,87.27
2018-12-17T04:49:35.190Z,87.05
2018-12-17T04:52:02.767Z,86.48
2018-12-17T04:54:30.727Z,87.03
2018-12-17T04:56:58.316Z,86.75
2018-12-17T04:59:25.994Z,86.96
2018-12-17T05:01:53.642Z,87.53
2018-12-17T05:04:21.368Z,87.71
2018-12-17T05:06:49.210Z,88.12
2018-12-17T05:09:16.738Z,88.12
2018-12-17T05:11:44.430Z,88.14
2018-12-17T05:14:12.385Z,87.97
2018-12-17T05:16:40.113Z,87.53
2018-12-17T05:19:07.648Z,87.54
2018-12-17T05:21:35.459Z,87.12
2018-12-17T05:24:03.033Z,86.87
2018-12-17T05:26:30.546Z,86.95
2018-12-17T05:28:58.146Z,86.57
2018-12-17T05:31:25.685Z,86.87
2018-12-17T05:33:53.236Z,86.81
2018-12-17T05:36:20.829Z,87.35
2018-12-17T05:38:48.364Z,87.72
2018-12-17T05:41:15.991Z,87.70
2018-12-17T05:43:43.540Z,88.13
2018-12-17T05:46:11.074Z,87.68
2018-12-17T05:48:38.616Z,87.94
2018-12-17T05:51:06.185Z,87.58
2018-12-17T05:53:33.798Z,87.53
2018-12-17T05:56:01.511Z,87.87
2018-12-17T05:58:29.904Z,87.55
2018-12-17T06:00:57.500Z,87.24
2018-12-17T06:03:25.146Z,86.85
2018-12-17T06:05:52.672Z,86.79
2018-12-17T06:08:20.215Z,86.64
2018-12-17T06:10:47.730Z,86.56
2018-12-17T06:13:15.329Z,86.82
2018-12-17T06:15:42.956Z,86.46
2018-12-17T06:18:10.468Z,86.36
2018-12-17T06:20:37.996Z,86.64
2018-12-17T06:23:05.532Z,86.68
2018-12-17T06:25:33.036Z,86.66
2018-12-17T06:28:01.409Z,86.62
2018-12-17T06:30:28.944Z,86.55
2018-12-17T06:32:56.503Z,86.47
2018-12-17T06:35:24.052Z,86.42
2018-12-17T06:37:51.602Z,86.36
2018-12-17T06:40:19.243Z,86.22
2018-12-17T06:42:46.892Z,85.95
2018-12-17T06:45:14.498Z,85.93
2018-12-17T06:47:42.120Z,85.91
2018-12-17T06:50:09.678Z,85.74
2018-12-17T06:52:37.232Z,85.40
2018-12-17T06:55:05.833Z,85.50
2018-12-17T06:57:33.609Z,85.06
2018-12-17T07:00:01.615Z,84.60
2018-12-17T07:02:29.278Z,84.90
2018-12-17T07:04:56.833Z,85.08
2018-12-17T07:07:24.376Z,85.20
2018-12-17T07:09:51.895Z,85.03
2018-12-17T07:12:19.474Z,85.21
2018-12-17T07:14:47.018Z,85.54
2018-12-17T07:17:14.555Z,85.45
2018-12-17T07:19:42.417Z,85.74
2018-12-17T07:22:09.962Z,85.65
2018-12-17T07:24:37.515Z,85.26
2018-12-17T07:27:05.113Z,85.52
2018-12-17T07:29:32.747Z,85.47
2018-12-17T07:32:01.403Z,85.17
2018-12-17T07:34:29.196Z,85.27
2018-12-17T07:36:56.981Z,85.11
2018-12-17T07:39:25.240Z,85.06
2018-12-17T07:41:52.789Z,84.84
2018-12-17T07:44:20.409Z,84.84
2018-12-17T07:46:47.987Z,84.38
2018-12-17T07:49:15.518Z,84.34
2018-12-17T07:51:43.132Z,84.36
2018-12-17T07:54:10.683Z,83.81
2018-12-17T07:56:38.249Z,83.29
2018-12-17T07:59:05.818Z,83.28
2018-12-17T08:01:33.363Z,82.90
2018-12-17T08:04:00.981Z,82.75
2018-12-17T08:06:28.573Z,83.39
2018-12-17T08:08:56.194Z,82.64
2018-12-17T08:11:23.791Z,82.82
2018-12-17T08:13:51.410Z,82.35
2018-12-17T08:16:19.032Z,82.76
2018-12-17T08:18:46.653Z,82.23
2018-12-17T08:21:14.195Z,81.46
2018-12-17T08:23:42.048Z,81.45
2018-12-17T08:26:09.573Z,80.59
2018-12-17T08:28:37.127Z,81.19
2018-12-17T08:31:04.854Z,81.25
2018-12-17T08:33:32.420Z,81.26
2018-12-17T08:35:59.973Z,81.55
2018-12-17T08:38:27.578Z,82.19
2018-12-17T08:40:55.482Z,82.26
2018-12-17T08:43:23.036Z,82.98
2018-12-17T08:45:50.569Z,83.23
2018-12-17T08:48:18.150Z,83.19
2018-12-17T08:50:45.688Z,84.14
2018-12-17T08:53:13.605Z,84.58
2018-12-17T08:55:41.180Z,84.94
2018-12-17T08:58:08.982Z,85.43
2018-12-17T09:00:36.600Z,85.54
2018-12-17T09:03:04.309Z,85.29
2018-12-17T09:05:31.869Z,84.88
2018-12-17T09:07:59.401Z,84.77
2018-12-17T09:10:26.943Z,85.26
2018-12-17T09:12:54.529Z,84.97
2018-12-17T09:15:22.067Z,85.45
2018-12-17T09:17:49.637Z,85.44
2018-12-17T09:20:17.188Z,85.19
2018-12-17T09:22:44.734Z,85.05
2018-12-17T09:25:12.693Z,84.34
2018-12-17T09:27:40.241Z,83.65
2018-12-17T09:30:08.116Z,82.37
2018-12-17T09:32:35.978Z,79.69
2018-12-17T09:35:03.660Z,74.25
2018-12-17T09:37:31.221Z,70.95
2018-12-17T09:39:59.085Z,69.91
2018-12-17T09:42:26.641Z,70.89
2018-12-17T09:44:54.168Z,72.85
2018-12-17T09:47:21.718Z,75.08
2018-12-17T09:49:49.277Z,75.88
2018-12-17T09:52:16.903Z,76.78
2018-12-17T09:54:44.820Z,76.50
2018-12-17T09:57:12.318Z,77.04
2018-12-17T09:59:39.958Z,77.78
2018-12-17T10:02:07.601Z,78.74
2018-12-17T10:04:35.155Z,79.30
2018-12-17T10:07:03.482Z,80.00
2018-12-17T10:09:31.048Z,80.37
2018-12-17T10:11:58.648Z,80.28
2018-12-17T10:14:26.169Z,80.57
2018-12-17T10:16:53.693Z,80.77
2018-12-17T10:19:21.333Z,80.89
2018-12-17T10:21:48.990Z,81.04
2018-12-17T10:24:16.521Z,80.89
2018-12-17T10:26:44.101Z,80.50
2018-12-17T10:29:11.708Z,81.07
2018-12-17T10:31:39.266Z,80.63
2018-12-17T10:34:06.840Z,80.77
2018-12-17T10:36:34.390Z,80.27
2018-12-17T10:39:02.230Z,72.94
2018-12-17T10:41:29.793Z,63.28
2018-12-17T10:43:57.333Z,58.50
2018-12-17T10:46:24.885Z,56.65
2018-12-17T10:48:52.569Z,56.08
2018-12-17T10:51:20.161Z,55.81
2018-12-17T10:53:47.726Z,54.02
2018-12-17T10:56:15.652Z,53.08
2018-12-17T10:58:43.207Z,52.90
2018-12-17T11:01:16.389Z,54.34
2018-12-17T11:03:48.885Z,56.86
2018-12-17T11:06:18.581Z,59.53
2018-12-17T11:08:48.158Z,60.95
2018-12-17T11:11:16.052Z,63.60
2018-12-17T11:13:44.383Z,65.34
2018-12-17T11:16:12.095Z,67.83
2018-12-17T11:18:39.653Z,69.46
2018-12-17T11:21:07.216Z,71.01
2018-12-17T11:23:36.135Z,73.10
2018-12-17T11:26:03.693Z,74.78
2018-12-17T11:28:31.237Z,75.63
2018-12-17T11:30:58.955Z,75.73
2018-12-17T11:33:26.494Z,76.29
2018-12-17T11:35:54.096Z,76.27
2018-12-17T11:38:21.655Z,76.52
2018-12-17T11:40:49.531Z,77.20
2018-12-17T11:43:17.245Z,76.92
2018-12-17T11:45:44.787Z,76.69
2018-12-17T11:48:12.375Z,77.36
2018-12-17T11:50:40.162Z,77.33
2018-12-17T11:53:07.708Z,77.71
2018-12-17T11:55:35.214Z,77.77
2018-12-17T11:58:09.858Z,78.08
2018-12-17T12:00:38.553Z,78.81
2018-12-17T12:03:06.363Z,78.90
2018-12-17T12:05:33.925Z,80.05
2018-12-17T12:08:01.415Z,80.64
2018-12-17T12:10:28.978Z,80.60
2018-12-17T12:12:56.527Z,80.76
2018-12-17T12:15:24.389Z,81.23
2018-12-17T12:17:51.938Z,81.37
2018-12-17T12:20:19.578Z,81.26
2018-12-17T12:22:47.222Z,81.08
2018-12-17T12:25:14.909Z,81.28
2018-12-17T12:27:42.480Z,81.69
2018-12-17T12:30:11.074Z,81.78
2018-12-17T12:32:38.675Z,82.01
2018-12-17T12:35:07.718Z,81.74
2018-12-17T12:37:35.375Z,81.99
2018-12-17T12:40:03.350Z,81.80
2018-12-17T12:42:30.916Z,81.31
2018-12-17T12:44:58.724Z,81.30
2018-12-17T12:47:26.264Z,81.54
2018-12-17T12:49:53.884Z,81.33
2018-12-17T12:52:21.425Z,81.82
2018-12-17T12:54:48.954Z,81.86
2018-12-17T12:57:16.553Z,82.07
2018-12-17T12:59:44.136Z,81.83
2018-12-17T13:02:11.692Z,81.69
2018-12-17T13:04:39.280Z,81.80
2018-12-17T13:07:06.909Z,80.69
2018-12-17T13:09:34.465Z,80.78
2018-12-17T13:12:02.093Z,80.38
2018-12-17T13:14:29.673Z,80.42
2018-12-17T13:16:57.229Z,80.41
2018-12-17T13:19:24.792Z,80.48
2018-12-17T13:21:52.363Z,80.77
2018-12-17T13:24:19.910Z,81.32
2018-12-17T13:26:47.448Z,81.58
2018-12-17T13:29:14.984Z,81.75
2018-12-17T13:31:42.549Z,81.74
2018-12-17T13:34:10.094Z,82.59
2018-12-17T13:36:37.668Z,83.39
2018-12-17T13:39:05.988Z,83.51
2018-12-17T13:41:33.563Z,83.89
2018-12-17T13:44:01.140Z,84.06
2018-12-17T13:46:28.721Z,84.45
2018-12-17T13:48:56.290Z,84.76
2018-12-17T13:51:29.413Z,85.19
2018-12-17T13:53:59.201Z,85.68
2018-12-17T13:56:27.607Z,85.62
2018-12-17T13:58:55.379Z,85.89
2018-12-17T14:01:22.979Z,86.44
2018-12-17T14:03:51.013Z,85.93
2018-12-17T14:06:18.992Z,86.46
2018-12-17T14:08:46.541Z,86.49
2018-12-17T14:11:14.412Z,86.95
2018-12-17T14:13:41.949Z,86.77
2018-12-17T14:16:15.772Z,86.88
2018-12-17T14:18:49.252Z,86.84
2018-12-17T14:21:22.561Z,87.16
2018-12-17T14:23:50.427Z,87.27
2018-12-17T14:26:17.975Z,87.04
2018-12-17T14:28:45.543Z,86.70
2018-12-17T14:31:13.117Z,87.30
2018-12-17T14:33:40.668Z,87.64
2018-12-17T14:36:08.941Z,87.66
2018-12-17T14:38:37.328Z,87.73
2018-12-17T14:41:05.104Z,88.25
2018-12-17T14:43:33.126Z,88.23
2018-12-17T14:46:00.891Z,88.12
2018-12-17T14:48:28.425Z,87.97
2018-12-17T14:50:55.999Z,88.57
2018-12-17T14:53:23.565Z,88.21
2018-12-17T14:55:51.449Z,88.19
2018-12-17T14:58:18.990Z,88.26
2018-12-17T15:00:46.521Z,88.41
2018-12-17T15:03:14.067Z,88.65
2018-12-17T15:05:41.602Z,88.34
2018-12-17T15:08:09.198Z,88.07
2018-12-17T15:10:36.841Z,88.25
2018-12-17T15:13:04.410Z,88.07
2018-12-17T15:15:31.933Z,88.45
2018-12-17T15:17:59.577Z,88.54
2018-12-17T15:20:27.141Z,88.89
2018-12-17T15:22:54.742Z,88.98
2018-12-17T15:25:22.298Z,89.54
2018-12-17T15:27:50.340Z,89.95
2018-12-17T15:30:18.086Z,89.69
2018-12-17T15:32:46.394Z,89.99
2018-12-17T15:35:13.945Z,89.74
2018-12-17T15:37:41.545Z,90.15
2018-12-17T15:40:09.334Z,89.98
2018-12-17T15:42:40.787Z,90.12
2018-12-17T15:45:06.817Z,90.29
2018-12-17T15:47:34.442Z,90.27
2018-12-17T15:50:02.025Z,90.26
2018-12-17T15:52:29.622Z,90.45
2018-12-17T15:54:57.227Z,90.08
2018-12-17T15:57:24.789Z,89.81
2018-12-17T15:59:52.411Z,89.96
2018-12-17T16:02:19.948Z,90.09
2018-12-17T16:04:47.511Z,89.95
2018-12-17T16:07:15.153Z,89.79
2018-12-17T16:09:42.700Z,89.74
2018-12-17T16:12:10.274Z,89.16
2018-12-17T16:14:37.816Z,88.60
2018-12-17T16:17:05.369Z,88.39
2018-12-17T16:19:33.008Z,88.33
2018-12-17T16:22:00.833Z,88.20
2018-12-17T16:24:28.443Z,88.78
2018-12-17T16:26:56.064Z,89.00
2018-12-17T16:29:23.670Z,89.39
2018-12-17T16:31:57.141Z,89.66
2018-12-17T16:34:20.813Z,89.00
2018-12-17T16:36:48.606Z,89.61
2018-12-17T16:39:16.202Z,89.78
2018-12-17T16:41:43.772Z,89.42
2018-12-17T16:44:11.336Z,89.77
2018-12-17T16:46:38.919Z,89.94
2018-12-17T16:49:06.474Z,89.45
2018-12-17T16:51:34.006Z,89.23
2018-12-17T16:54:01.658Z,89.47
2018-12-17T16:56:29.336Z,88.82
2018-12-17T16:58:56.905Z,88.60
2018-12-17T17:01:24.565Z,88.50
2018-12-17T17:03:52.155Z,88.16
2018-12-17T17:06:19.699Z,87.48
2018-12-17T17:08:47.835Z,87.09
2018-12-17T17:11:15.388Z,86.39
2018-12-17T17:13:42.930Z,87.22
2018-12-17T17:16:10.584Z,87.23
2018-12-17T17:18:38.137Z,87.95
2018-12-17T17:21:05.725Z,88.11
2018-12-17T17:23:33.276Z,87.85
2018-12-17T17:26:00.869Z,87.80
2018-12-17T17:28:28.497Z,88.14
2018-12-17T17:30:56.081Z,88.52
2018-12-17T17:33:23.753Z,88.14
2018-12-17T17:35:51.296Z,87.54
2018-12-17T17:38:18.866Z,87.72
2018-12-17T17:40:46.757Z,87.67
2018-12-17T17:43:14.301Z,87.89
2018-12-17T17:45:41.949Z,87.63
2018-12-17T17:48:09.561Z,87.27
2018-12-17T17:50:37.117Z,86.84
2018-12-17T17:53:04.655Z,86.69
2018-12-17T17:55:32.594Z,86.31
2018-12-17T17:58:00.147Z,85.68
2018-12-17T18:00:27.804Z,86.30
2018-12-17T18:02:55.436Z,86.54
2018-12-17T18:05:23.008Z,86.81
2018-12-17T18:07:50.919Z,87.30
2018-12-17T18:10:18.864Z,87.15
2018-12-17T18:12:46.414Z,86.55
2018-12-17T18:15:14.220Z,86.50
2018-12-17T18:17:41.785Z,86.49
2018-12-17T18:20:09.449Z,86.72
2018-12-17T18:22:37.062Z,86.56
2018-12-17T18:25:04.773Z,86.33
2018-12-17T18:27:32.356Z,86.02
2018-12-17T18:29:59.950Z,86.10
2018-12-17T18:32:27.539Z,85.86
2018-12-17T18:34:55.090Z,85.74
2018-12-17T18:37:23.055Z,85.88
2018-12-17T18:39:50.656Z,85.96
2018-12-17T18:42:18.232Z,86.45
2018-12-17T18:44:45.809Z,86.52
2018-12-17T18:47:13.529Z,86.63
2018-12-17T18:49:41.090Z,86.49
2018-12-17T18:52:08.625Z,86.35
2018-12-17T18:54:36.891Z,86.30
2018-12-17T18:57:04.474Z,86.57
2018-12-17T18:59:33.143Z,86.60
2018-12-17T19:02:01.496Z,86.29
2018-12-17T19:04:29.084Z,86.31
2018-12-17T19:06:56.741Z,86.32
2018-12-17T19:09:24.356Z,86.47
2018-12-17T19:11:51.916Z,86.83
2018-12-17T19:14:19.722Z,86.47
2018-12-17T19:16:47.255Z,86.18
2018-12-17T19:19:14.826Z,86.15
2018-12-17T19:21:42.417Z,86.43
2018-12-17T19:24:09.984Z,86.11
2018-12-17T19:26:37.570Z,86.27
2018-12-17T19:29:05.509Z,86.44
2018-12-17T19:31:34.744Z,86.26
2018-12-17T19:34:02.562Z,86.63
2018-12-17T19:36:30.142Z,86.90
2018-12-17T19:38:57.697Z,87.22
2018-12-17T19:41:25.317Z,86.75
2018-12-17T19:43:52.997Z,87.02
2018-12-17T19:46:20.593Z,86.85
2018-12-17T19:48:48.204Z,86.25
2018-12-17T19:51:15.849Z,86.70
2018-12-17T19:53:43.650Z,86.34
2018-12-17T19:56:11.220Z,86.10
2018-12-17T19:58:38.820Z,86.05
2018-12-17T20:01:06.782Z,86.23
2018-12-17T20:03:34.487Z,85.98
2018-12-17T20:06:02.250Z,86.18
2018-12-17T20:08:30.432Z,85.97
2018-12-17T20:10:57.986Z,85.62
2018-12-17T20:13:25.578Z,85.60
2018-12-17T20:15:53.159Z,85.87
2018-12-17T20:18:20.850Z,85.60
2018-12-17T20:20:48.430Z,85.62
2018-12-17T20:23:16.325Z,85.47
2018-12-17T20:25:43.937Z,85.99
2018-12-17T20:28:11.506Z,86.20
2018-12-17T20:30:39.109Z,86.27
2018-12-17T20:33:06.742Z,86.28
2018-12-17T20:35:34.343Z,85.80
2018-12-17T20:38:02.271Z,86.06
2018-12-17T20:40:29.854Z,85.79
2018-12-17T20:42:57.440Z,86.03
2018-12-17T20:45:25.518Z,86.07
2018-12-17T20:47:53.107Z,86.05
2018-12-17T20:50:20.664Z,86.22
2018-12-17T20:52:48.258Z,86.81
2018-12-17T20:55:15.847Z,86.55
2018-12-17T20:57:43.399Z,86.37
2018-12-17T21:00:11.287Z,86.31
2018-12-17T21:02:38.827Z,86.65
2018-12-17T21:05:06.529Z,86.48
2018-12-17T21:07:34.209Z,86.64
2018-12-17T21:10:02.110Z,86.31
2018-12-17T21:12:29.685Z,86.18
2018-12-17T21:14:57.254Z,86.84
2018-12-17T21:17:24.804Z,86.79
2018-12-17T21:19:52.373Z,86.99
2018-12-17T21:22:19.941Z,86.97
2018-12-17T21:24:47.545Z,86.80
2018-12-17T21:27:15.502Z,86.67
2018-12-17T21:29:43.077Z,86.89
2018-12-17T21:32:10.674Z,86.71
2018-12-17T21:34:38.342Z,86.77
2018-12-17T21:37:05.917Z,86.98
2018-12-17T21:39:33.489Z,87.24
2018-12-17T21:42:01.018Z,87.14
2018-12-17T21:44:28.647Z,86.81
2018-12-17T21:46:56.242Z,86.84
2018-12-17T21:49:23.809Z,86.72
2018-12-17T21:51:51.490Z,86.89
2018-12-17T21:54:19.079Z,86.89
2018-12-17T21:56:47.310Z,86.64
2018-12-17T21:59:14.895Z,87.07
2018-12-17T22:01:42.741Z,87.23
2018-12-17T22:04:10.792Z,87.22
2018-12-17T22:06:38.368Z,86.83
2018-12-17T22:09:06.960Z,86.54
2018-12-17T22:11:34.807Z,86.09
2018-12-17T22:14:02.522Z,86.23
2018-12-17T22:16:30.465Z,85.84
2018-12-17T22:18:58.027Z,85.96
2018-12-17T22:21:25.657Z,85.75
2018-12-17T22:23:53.545Z,86.01
2018-12-17T22:26:21.186Z,86.23
2018-12-17T22:28:48.701Z,86.12
2018-12-17T22:31:16.258Z,86.17
2018-12-17T22:33:43.788Z,86.33
2018-12-17T22:36:11.652Z,85.80
2018-12-17T22:38:39.211Z,85.92
2018-12-17T22:41:06.818Z,85.84
2018-12-17T22:43:34.665Z,86.09
2018-12-17T22:46:02.225Z,85.84
2018-12-17T22:48:29.779Z,85.64
2018-12-17T22:50:57.376Z,85.44
2018-12-17T22:53:25.030Z,85.51
2018-12-17T22:55:52.577Z,85.97
2018-12-17T22:58:20.206Z,85.55
2018-12-17T23:00:47.766Z,86.01
2018-12-17T23:03:15.379Z,86.14
2018-12-17T23:05:42.951Z,85.85
2018-12-17T23:08:10.486Z,85.81
2018-12-17T23:10:44.403Z,85.37
2018-12-17T23:13:17.630Z,85.36
2018-12-17T23:15:50.891Z,85.29
2018-12-17T23:18:17.924Z,85.26
2018-12-17T23:20:45.556Z,85.94
2018-12-17T23:23:13.218Z,85.73
2018-12-17T23:25:40.750Z,85.81
2018-12-17T23:28:08.340Z,85.97
2018-12-17T23:30:36.133Z,86.34
2018-12-17T23:33:03.829Z,86.56
2018-12-17T23:35:31.807Z,86.54
2018-12-17T23:37:59.362Z,87.18
2018-12-17T23:40:26.971Z,87.59
2018-12-17T23:42:54.814Z,87.70
2018-12-17T23:45:22.468Z,87.99
2018-12-17T23:47:50.153Z,87.93
2018-12-17T23:50:17.715Z,88.22
2018-12-17T23:52:45.274Z,88.44
2018-12-17T23:55:12.807Z,88.58
2018-12-17T23:57:40.328Z,88.38
